createdAt,value
2017-07-06T00:00:14.551Z,0
2017-07-06T00:00:54.968Z,0
2017-07-06T00:01:35.497Z,0
2017-07-06T00:02:16.043Z,0
2017-07-06T00:02:56.594Z,0
2017-07-06T00:03:37.068Z,0
2017-07-06T00:04:17.557Z,0
2017-07-06T00:04:58.047Z,0
2017-07-06T00:05:38.579Z,0
2017-07-06T00:06:19.065Z,0
2017-07-06T00:06:59.641Z,0
2017-07-06T00:07:40.112Z,0
2017-07-06T00:08:20.653Z,0
2017-07-06T00:09:01.146Z,0
2017-07-06T00:09:41.631Z,0
2017-07-06T00:10:22.132Z,0
2017-07-06T00:11:02.672Z,0
2017-07-06T00:11:43.131Z,0
2017-07-06T00:12:23.616Z,0
2017-07-06T00:13:04.133Z,0
2017-07-06T00:13:44.682Z,0
2017-07-06T00:14:25.159Z,0
2017-07-06T00:15:05.632Z,0
2017-07-06T00:15:46.167Z,0
2017-07-06T00:16:26.648Z,0
2017-07-06T00:17:07.115Z,0
2017-07-06T00:17:47.622Z,0
2017-07-06T00:18:28.153Z,0
2017-07-06T00:19:08.641Z,0
2017-07-06T00:19:49.182Z,0
2017-07-06T00:20:29.642Z,0
2017-07-06T00:21:10.186Z,0
2017-07-06T00:21:50.707Z,0
2017-07-06T00:22:31.194Z,0
2017-07-06T00:23:11.643Z,0
2017-07-06T00:23:52.186Z,0
2017-07-06T00:24:32.705Z,0
2017-07-06T00:25:13.160Z,0
2017-07-06T00:25:53.665Z,0
2017-07-06T00:26:34.238Z,0
2017-07-06T00:27:14.707Z,0
2017-07-06T00:27:55.212Z,0
2017-07-06T00:28:35.844Z,0
2017-07-06T00:29:16.377Z,0
2017-07-06T00:29:56.876Z,0
2017-07-06T00:30:37.410Z,0
2017-07-06T00:31:17.928Z,0
2017-07-06T00:31:58.413Z,0
2017-07-06T00:32:38.919Z,0
2017-07-06T00:33:19.383Z,0
2017-07-06T00:33:59.881Z,0
2017-07-06T00:34:40.406Z,0
2017-07-06T00:35:20.880Z,0
2017-07-06T00:36:01.363Z,0
2017-07-06T00:36:41.878Z,0
2017-07-06T00:37:22.377Z,0
2017-07-06T00:38:02.961Z,0
2017-07-06T00:38:43.378Z,0
2017-07-06T00:39:23.924Z,0
2017-07-06T00:40:04.415Z,0
2017-07-06T00:40:44.906Z,0
2017-07-06T00:41:25.589Z,0
2017-07-06T00:42:06.057Z,0
2017-07-06T00:42:46.654Z,0
2017-07-06T00:43:27.131Z,0
2017-07-06T00:44:07.634Z,0
2017-07-06T00:44:48.117Z,0
2017-07-06T00:45:28.620Z,0
2017-07-06T00:46:09.161Z,0
2017-07-06T00:46:49.622Z,0
2017-07-06T00:47:30.374Z,0
2017-07-06T00:48:10.876Z,0
2017-07-06T00:48:51.341Z,0
2017-07-06T00:49:31.883Z,0
2017-07-06T00:50:12.376Z,0
2017-07-06T00:50:52.892Z,0
2017-07-06T00:51:33.405Z,0
2017-07-06T00:52:13.936Z,0
2017-07-06T00:52:54.414Z,0
2017-07-06T00:53:34.953Z,0
2017-07-06T00:54:15.492Z,0
2017-07-06T00:54:55.951Z,0
2017-07-06T00:55:36.498Z,0
2017-07-06T00:56:16.963Z,0
2017-07-06T00:56:57.496Z,0
2017-07-06T00:57:38.043Z,0
2017-07-06T00:58:18.526Z,0
2017-07-06T00:58:59.054Z,0
2017-07-06T00:59:39.556Z,0
2017-07-06T01:00:20.055Z,0
2017-07-06T01:01:00.584Z,0
2017-07-06T01:01:41.068Z,0
2017-07-06T01:02:21.559Z,0
2017-07-06T01:03:02.058Z,0
2017-07-06T01:03:42.611Z,0
2017-07-06T01:04:23.155Z,0
2017-07-06T01:05:03.614Z,0
2017-07-06T01:05:44.204Z,0
2017-07-06T01:06:24.640Z,0
2017-07-06T01:07:05.181Z,0
2017-07-06T01:07:45.611Z,0
2017-07-06T01:08:26.150Z,0
2017-07-06T01:09:06.614Z,0
2017-07-06T01:09:47.197Z,0
2017-07-06T01:10:27.682Z,0
2017-07-06T01:11:08.183Z,0
2017-07-06T01:11:48.669Z,0
2017-07-06T01:12:29.172Z,0
2017-07-06T01:13:09.694Z,0
2017-07-06T01:13:50.229Z,0
2017-07-06T01:14:30.689Z,0
2017-07-06T01:15:11.265Z,0
2017-07-06T01:15:51.700Z,0
2017-07-06T01:16:32.232Z,0
2017-07-06T01:17:12.727Z,0
2017-07-06T01:17:53.275Z,0
2017-07-06T01:18:33.733Z,0
2017-07-06T01:19:14.269Z,0
2017-07-06T01:19:54.725Z,0
2017-07-06T01:20:35.219Z,0
2017-07-06T01:21:15.703Z,0
2017-07-06T01:21:56.210Z,0
2017-07-06T01:22:36.742Z,0
2017-07-06T01:23:17.248Z,0
2017-07-06T01:23:57.760Z,0
2017-07-06T01:24:38.302Z,0
2017-07-06T01:25:18.782Z,0
2017-07-06T01:25:59.279Z,0
2017-07-06T01:26:39.789Z,0
2017-07-06T01:27:20.329Z,0
2017-07-06T01:28:00.815Z,0
2017-07-06T01:28:41.291Z,0
2017-07-06T01:29:21.804Z,0
2017-07-06T01:30:02.319Z,0
2017-07-06T01:30:42.784Z,0
2017-07-06T01:31:23.297Z,0
2017-07-06T01:32:03.814Z,0
2017-07-06T01:32:44.329Z,0
2017-07-06T01:33:24.835Z,0
2017-07-06T01:34:05.297Z,0
2017-07-06T01:34:45.842Z,0
2017-07-06T01:35:26.292Z,0
2017-07-06T01:36:06.799Z,0
2017-07-06T01:36:47.302Z,0
2017-07-06T01:37:27.833Z,0
2017-07-06T01:38:08.342Z,0
2017-07-06T01:38:48.814Z,0
2017-07-06T01:39:29.310Z,0
2017-07-06T01:40:09.809Z,0
2017-07-06T01:40:50.297Z,0
2017-07-06T01:41:30.831Z,0
2017-07-06T01:42:11.276Z,0
2017-07-06T01:42:51.801Z,0
2017-07-06T01:43:32.300Z,0
2017-07-06T01:44:12.805Z,0
2017-07-06T01:44:53.364Z,0
2017-07-06T01:45:34.803Z,0
2017-07-06T01:46:15.332Z,0
2017-07-06T01:46:55.781Z,0
2017-07-06T01:47:36.313Z,0
2017-07-06T01:48:16.812Z,0
2017-07-06T01:48:57.321Z,0
2017-07-06T01:49:37.833Z,0
2017-07-06T01:50:18.331Z,0
2017-07-06T01:50:58.832Z,0
2017-07-06T01:51:39.395Z,0
2017-07-06T01:52:19.894Z,0
2017-07-06T01:53:00.402Z,0
2017-07-06T01:53:40.942Z,0
2017-07-06T01:54:21.429Z,0
2017-07-06T01:55:01.904Z,0
2017-07-06T01:55:42.420Z,0
2017-07-06T01:56:22.938Z,0
2017-07-06T01:57:03.454Z,0
2017-07-06T01:57:43.933Z,0
2017-07-06T01:58:24.458Z,0
2017-07-06T01:59:05.002Z,0
2017-07-06T01:59:45.466Z,0
2017-07-06T02:00:26.006Z,0
2017-07-06T02:01:06.510Z,0
2017-07-06T02:01:47.021Z,0
2017-07-06T02:02:27.538Z,0
2017-07-06T02:03:08.031Z,0
2017-07-06T02:03:48.565Z,0
2017-07-06T02:04:29.054Z,0
2017-07-06T02:05:09.570Z,0
2017-07-06T02:05:50.104Z,0
2017-07-06T02:06:30.562Z,0
2017-07-06T02:07:11.075Z,0
2017-07-06T02:07:51.567Z,0
2017-07-06T02:08:32.069Z,0
2017-07-06T02:09:12.583Z,0
2017-07-06T02:09:53.119Z,0
2017-07-06T02:10:33.615Z,0
2017-07-06T02:11:14.097Z,0
2017-07-06T02:11:54.673Z,0
2017-07-06T02:12:35.122Z,0
2017-07-06T02:13:15.774Z,0
2017-07-06T02:13:56.274Z,0
2017-07-06T02:14:36.735Z,0
2017-07-06T02:15:17.311Z,0
2017-07-06T02:15:57.807Z,0
2017-07-06T02:16:38.348Z,0
2017-07-06T02:17:18.947Z,0
2017-07-06T02:17:59.361Z,0
2017-07-06T02:18:39.861Z,0
2017-07-06T02:19:20.368Z,0
2017-07-06T02:20:00.860Z,0
2017-07-06T02:20:41.316Z,0
2017-07-06T02:21:21.838Z,0
2017-07-06T02:22:02.332Z,0
2017-07-06T02:22:42.834Z,0
2017-07-06T02:23:23.367Z,0
2017-07-06T02:24:03.819Z,0
2017-07-06T02:24:44.319Z,0
2017-07-06T02:25:24.803Z,0
2017-07-06T02:26:05.304Z,0
2017-07-06T02:26:45.811Z,0
2017-07-06T02:27:26.311Z,0
2017-07-06T02:28:06.869Z,0
2017-07-06T02:28:47.329Z,0
2017-07-06T02:29:27.861Z,0
2017-07-06T02:30:08.381Z,0
2017-07-06T02:30:48.916Z,0
2017-07-06T02:31:29.422Z,0
2017-07-06T02:32:09.944Z,0
2017-07-06T02:32:50.424Z,0
2017-07-06T02:33:30.883Z,0
2017-07-06T02:34:11.420Z,0
2017-07-06T02:34:51.928Z,0
2017-07-06T02:35:32.417Z,0
2017-07-06T02:36:12.868Z,0
2017-07-06T02:36:53.364Z,0
2017-07-06T02:37:33.947Z,0
2017-07-06T02:38:14.423Z,0
2017-07-06T02:38:54.972Z,0
2017-07-06T02:39:35.461Z,0
2017-07-06T02:40:15.986Z,0
2017-07-06T02:40:56.464Z,0
2017-07-06T02:41:37.214Z,0
2017-07-06T02:42:17.764Z,0
2017-07-06T02:42:58.234Z,0
2017-07-06T02:43:38.734Z,0
2017-07-06T02:44:19.226Z,0
2017-07-06T02:44:59.761Z,0
2017-07-06T02:45:40.286Z,0
2017-07-06T02:46:20.722Z,0
2017-07-06T02:47:01.241Z,0
2017-07-06T02:47:41.730Z,0
2017-07-06T02:48:22.238Z,4
2017-07-06T02:49:02.729Z,4
2017-07-06T02:49:43.213Z,4
2017-07-06T02:50:23.750Z,4
2017-07-06T02:51:04.205Z,0
2017-07-06T02:51:44.703Z,0
2017-07-06T02:52:25.230Z,4
2017-07-06T02:53:05.710Z,4
2017-07-06T02:53:46.263Z,4
2017-07-06T02:54:26.731Z,4
2017-07-06T02:55:07.219Z,4
2017-07-06T02:55:47.721Z,4
2017-07-06T02:56:28.244Z,4
2017-07-06T02:57:08.787Z,8
2017-07-06T02:57:49.274Z,4
2017-07-06T02:58:29.805Z,8
2017-07-06T02:59:10.296Z,4
2017-07-06T02:59:50.813Z,8
2017-07-06T03:00:31.302Z,8
2017-07-06T03:01:11.785Z,8
2017-07-06T03:01:52.324Z,12
2017-07-06T03:02:32.878Z,12
2017-07-06T03:03:13.358Z,12
2017-07-06T03:03:53.840Z,12
2017-07-06T03:04:34.360Z,12
2017-07-06T03:05:14.856Z,16
2017-07-06T03:05:55.381Z,16
2017-07-06T03:06:35.837Z,20
2017-07-06T03:07:16.355Z,20
2017-07-06T03:07:56.808Z,24
2017-07-06T03:08:37.360Z,24
2017-07-06T03:09:17.849Z,24
2017-07-06T03:09:58.524Z,28
2017-07-06T03:10:39.039Z,32
2017-07-06T03:11:19.548Z,36
2017-07-06T03:12:00.007Z,40
2017-07-06T03:12:40.531Z,40
2017-07-06T03:13:21.044Z,44
2017-07-06T03:14:01.502Z,48
2017-07-06T03:14:42.040Z,48
2017-07-06T03:15:22.531Z,56
2017-07-06T03:16:03.547Z,56
2017-07-06T03:16:43.594Z,64
2017-07-06T03:17:24.045Z,68
2017-07-06T03:18:04.504Z,72
2017-07-06T03:18:45.045Z,76
2017-07-06T03:19:25.530Z,84
2017-07-06T03:20:06.044Z,88
2017-07-06T03:20:46.549Z,96
2017-07-06T03:21:27.087Z,100
2017-07-06T03:22:07.599Z,108
2017-07-06T03:22:48.195Z,116
2017-07-06T03:23:28.741Z,124
2017-07-06T03:24:09.280Z,132
2017-07-06T03:24:49.788Z,140
2017-07-06T03:25:30.378Z,144
2017-07-06T03:26:10.931Z,156
2017-07-06T03:26:51.415Z,168
2017-07-06T03:27:31.888Z,176
2017-07-06T03:28:12.392Z,184
2017-07-06T03:28:52.910Z,196
2017-07-06T03:29:33.398Z,204
2017-07-06T03:30:13.883Z,216
2017-07-06T03:30:54.405Z,224
2017-07-06T03:31:34.878Z,240
2017-07-06T03:32:15.445Z,252
2017-07-06T03:32:55.917Z,260
2017-07-06T03:33:36.426Z,276
2017-07-06T03:34:16.892Z,288
2017-07-06T03:34:57.399Z,300
2017-07-06T03:35:37.916Z,316
2017-07-06T03:36:18.373Z,332
2017-07-06T03:36:58.939Z,344
2017-07-06T03:37:39.432Z,360
2017-07-06T03:38:19.936Z,376
2017-07-06T03:39:00.387Z,388
2017-07-06T03:39:40.900Z,404
2017-07-06T03:40:21.429Z,424
2017-07-06T03:41:01.932Z,440
2017-07-06T03:41:42.440Z,456
2017-07-06T03:42:22.932Z,468
2017-07-06T03:43:03.425Z,488
2017-07-06T03:43:43.972Z,504
2017-07-06T03:44:24.520Z,524
2017-07-06T03:45:04.971Z,544
2017-07-06T03:45:45.524Z,560
2017-07-06T03:46:25.989Z,580
2017-07-06T03:47:06.515Z,600
2017-07-06T03:47:47.137Z,624
2017-07-06T03:48:27.657Z,640
2017-07-06T03:49:08.145Z,660
2017-07-06T03:49:48.670Z,680
2017-07-06T03:50:29.141Z,700
2017-07-06T03:51:09.636Z,720
2017-07-06T03:51:50.136Z,740
2017-07-06T03:52:30.592Z,760
2017-07-06T03:53:11.107Z,784
2017-07-06T03:53:51.589Z,804
2017-07-06T03:54:32.127Z,824
2017-07-06T03:55:12.658Z,848
2017-07-06T03:55:53.139Z,868
2017-07-06T03:56:33.633Z,888
2017-07-06T03:57:14.104Z,912
2017-07-06T03:57:54.596Z,932
2017-07-06T03:58:35.175Z,956
2017-07-06T03:59:15.620Z,976
2017-07-06T03:59:56.125Z,1000
2017-07-06T04:00:36.620Z,1016
2017-07-06T04:01:17.143Z,1040
2017-07-06T04:01:57.652Z,1060
2017-07-06T04:02:38.129Z,1084
2017-07-06T04:03:18.613Z,1112
2017-07-06T04:03:59.087Z,1132
2017-07-06T04:04:39.592Z,1156
2017-07-06T04:05:20.102Z,1172
2017-07-06T04:06:00.633Z,1196
2017-07-06T04:06:41.162Z,1216
2017-07-06T04:07:21.669Z,1244
2017-07-06T04:08:02.178Z,1272
2017-07-06T04:08:42.703Z,1304
2017-07-06T04:09:23.270Z,1348
2017-07-06T04:10:03.772Z,1384
2017-07-06T04:10:45.104Z,1416
2017-07-06T04:11:25.700Z,1436
2017-07-06T04:12:06.136Z,1460
2017-07-06T04:12:46.656Z,1488
2017-07-06T04:13:27.139Z,1504
2017-07-06T04:14:07.688Z,1488
2017-07-06T04:14:48.138Z,1476
2017-07-06T04:15:28.649Z,1480
2017-07-06T04:16:09.157Z,1496
2017-07-06T04:16:49.701Z,1516
2017-07-06T04:17:30.212Z,1528
2017-07-06T04:18:10.689Z,1552
2017-07-06T04:18:51.286Z,1572
2017-07-06T04:19:31.790Z,1588
2017-07-06T04:20:12.294Z,1608
2017-07-06T04:20:52.804Z,1620
2017-07-06T04:21:33.352Z,1640
2017-07-06T04:22:13.827Z,1660
2017-07-06T04:22:54.284Z,1676
2017-07-06T04:23:34.801Z,1696
2017-07-06T04:24:15.346Z,1712
2017-07-06T04:24:55.828Z,1728
2017-07-06T04:25:36.348Z,1744
2017-07-06T04:26:16.835Z,1764
2017-07-06T04:26:57.346Z,1780
2017-07-06T04:27:37.823Z,1800
2017-07-06T04:28:18.341Z,1820
2017-07-06T04:28:58.933Z,1840
2017-07-06T04:29:39.438Z,1852
2017-07-06T04:30:19.942Z,1864
2017-07-06T04:31:00.397Z,1880
2017-07-06T04:31:40.916Z,1900
2017-07-06T04:32:21.484Z,1920
2017-07-06T04:33:02.018Z,1936
2017-07-06T04:33:42.529Z,1952
2017-07-06T04:34:22.961Z,1968
2017-07-06T04:35:03.479Z,1996
2017-07-06T04:35:44.139Z,2020
2017-07-06T04:36:24.612Z,2052
2017-07-06T04:37:05.145Z,2076
2017-07-06T04:37:45.728Z,2120
2017-07-06T04:38:26.300Z,2196
2017-07-06T04:39:06.938Z,2360
2017-07-06T04:39:47.426Z,2696
2017-07-06T04:40:27.916Z,3248
2017-07-06T04:41:09.168Z,3712
2017-07-06T04:41:49.628Z,3908
2017-07-06T04:42:30.184Z,4128
2017-07-06T04:43:10.680Z,4860
2017-07-06T04:43:51.159Z,6216
2017-07-06T04:44:31.665Z,7680
2017-07-06T04:45:12.271Z,7952
2017-07-06T04:45:52.912Z,7008
2017-07-06T04:46:33.306Z,5056
2017-07-06T04:47:13.766Z,3540
2017-07-06T04:47:54.239Z,3140
2017-07-06T04:48:34.716Z,3172
2017-07-06T04:49:15.202Z,3904
2017-07-06T04:49:55.760Z,5120
2017-07-06T04:50:36.308Z,4988
2017-07-06T04:51:16.834Z,3728
2017-07-06T04:51:57.395Z,2708
2017-07-06T04:52:37.909Z,2524
2017-07-06T04:53:18.386Z,2508
2017-07-06T04:53:58.883Z,2520
2017-07-06T04:54:39.371Z,2528
2017-07-06T04:55:19.830Z,2636
2017-07-06T04:56:00.370Z,2756
2017-07-06T04:56:40.809Z,2872
2017-07-06T04:57:21.331Z,3148
2017-07-06T04:58:01.826Z,3328
2017-07-06T04:58:42.360Z,3208
2017-07-06T04:59:22.860Z,2884
2017-07-06T05:00:03.370Z,2776
2017-07-06T05:00:43.833Z,2812
2017-07-06T05:01:24.365Z,2912
2017-07-06T05:02:04.850Z,2968
2017-07-06T05:02:45.368Z,2936
2017-07-06T05:03:25.892Z,3104
2017-07-06T05:04:06.355Z,3096
2017-07-06T05:04:46.829Z,2860
2017-07-06T05:05:27.352Z,2604
2017-07-06T05:06:07.879Z,2568
2017-07-06T05:06:48.411Z,2544
2017-07-06T05:07:28.911Z,2568
2017-07-06T05:08:09.419Z,2708
2017-07-06T05:08:49.943Z,2784
2017-07-06T05:09:30.500Z,2760
2017-07-06T05:10:11.072Z,2632
2017-07-06T05:10:51.508Z,2560
2017-07-06T05:11:32.004Z,2568
2017-07-06T05:12:12.510Z,2592
2017-07-06T05:12:53.003Z,2620
2017-07-06T05:13:33.801Z,2684
2017-07-06T05:14:14.334Z,2752
2017-07-06T05:14:54.816Z,2748
2017-07-06T05:15:35.357Z,2716
2017-07-06T05:16:15.813Z,2724
2017-07-06T05:16:56.367Z,2912
2017-07-06T05:17:36.866Z,3452
2017-07-06T05:18:17.368Z,4328
2017-07-06T05:18:57.922Z,4468
2017-07-06T05:19:38.465Z,4140
2017-07-06T05:20:19.285Z,3660
2017-07-06T05:20:59.769Z,3576
2017-07-06T05:21:40.307Z,3820
2017-07-06T05:22:20.871Z,4032
2017-07-06T05:23:01.407Z,4280
2017-07-06T05:23:41.890Z,4708
2017-07-06T05:24:22.419Z,4788
2017-07-06T05:25:02.911Z,4364
2017-07-06T05:25:43.448Z,3608
2017-07-06T05:26:23.909Z,3100
2017-07-06T05:27:04.432Z,2980
2017-07-06T05:27:44.922Z,3004
2017-07-06T05:28:25.437Z,3096
2017-07-06T05:29:05.928Z,3240
2017-07-06T05:29:46.445Z,3468
2017-07-06T05:30:26.916Z,3720
2017-07-06T05:31:07.432Z,3944
2017-07-06T05:31:48.021Z,4164
2017-07-06T05:32:28.403Z,5000
2017-07-06T05:33:08.903Z,6224
2017-07-06T05:33:49.436Z,6560
2017-07-06T05:34:29.915Z,5612
2017-07-06T05:35:10.436Z,4460
2017-07-06T05:35:50.916Z,3884
2017-07-06T05:36:31.444Z,3468
2017-07-06T05:37:11.920Z,3256
2017-07-06T05:37:52.417Z,3140
2017-07-06T05:38:32.892Z,3040
2017-07-06T05:39:13.539Z,2988
2017-07-06T05:39:54.142Z,2952
2017-07-06T05:40:34.831Z,2932
2017-07-06T05:41:15.366Z,2924
2017-07-06T05:41:55.860Z,2928
2017-07-06T05:42:36.383Z,2936
2017-07-06T05:43:16.894Z,2948
2017-07-06T05:43:57.379Z,2976
2017-07-06T05:44:37.857Z,3008
2017-07-06T05:45:18.394Z,3020
2017-07-06T05:45:59.077Z,3024
2017-07-06T05:46:39.613Z,3020
2017-07-06T05:47:20.111Z,3020
2017-07-06T05:48:00.618Z,3060
2017-07-06T05:48:41.127Z,3100
2017-07-06T05:49:21.549Z,3140
2017-07-06T05:50:02.061Z,3116
2017-07-06T05:50:42.605Z,3156
2017-07-06T05:51:23.097Z,3172
2017-07-06T05:52:03.646Z,3172
2017-07-06T05:52:44.185Z,3128
2017-07-06T05:53:24.721Z,3136
2017-07-06T05:54:05.249Z,3256
2017-07-06T05:54:45.738Z,3332
2017-07-06T05:55:26.277Z,3428
2017-07-06T05:56:06.728Z,3656
2017-07-06T05:56:47.259Z,3672
2017-07-06T05:57:27.789Z,4112
2017-07-06T05:58:08.289Z,5212
2017-07-06T05:58:48.809Z,7296
2017-07-06T05:59:29.291Z,10424
2017-07-06T06:00:09.831Z,13348
2017-07-06T06:00:50.353Z,15412
2017-07-06T06:01:30.942Z,17024
2017-07-06T06:02:11.449Z,17408
2017-07-06T06:02:51.954Z,17248
2017-07-06T06:03:32.489Z,17056
2017-07-06T06:04:13.051Z,16672
2017-07-06T06:04:53.564Z,15964
2017-07-06T06:05:34.040Z,15444
2017-07-06T06:06:14.567Z,15064
2017-07-06T06:06:55.103Z,14808
2017-07-06T06:07:35.603Z,14568
2017-07-06T06:08:16.109Z,14368
2017-07-06T06:08:56.601Z,14128
2017-07-06T06:09:37.073Z,14064
2017-07-06T06:10:17.591Z,14052
2017-07-06T06:10:58.084Z,14284
2017-07-06T06:11:38.606Z,14420
2017-07-06T06:12:19.127Z,13928
2017-07-06T06:12:59.693Z,12356
2017-07-06T06:13:40.177Z,10724
2017-07-06T06:14:20.669Z,10024
2017-07-06T06:15:01.249Z,10576
2017-07-06T06:15:41.785Z,12020
2017-07-06T06:16:22.301Z,13492
2017-07-06T06:17:02.808Z,14052
2017-07-06T06:17:43.308Z,14468
2017-07-06T06:18:23.816Z,14660
2017-07-06T06:20:52.314Z,13840
2017-07-06T06:21:32.845Z,13712
2017-07-06T06:22:13.372Z,13860
2017-07-06T06:22:53.915Z,13968
2017-07-06T06:23:34.443Z,13600
2017-07-06T06:24:14.962Z,13336
2017-07-06T06:24:55.500Z,13616
2017-07-06T06:25:36.019Z,13900
2017-07-06T06:26:16.526Z,13896
2017-07-06T06:26:57.134Z,13804
2017-07-06T06:27:37.687Z,13824
2017-07-06T06:28:18.306Z,13620
2017-07-06T06:28:58.995Z,13800
2017-07-06T06:29:39.566Z,13852
2017-07-06T06:30:20.076Z,13716
2017-07-06T06:31:00.565Z,13436
2017-07-06T06:31:41.103Z,13180
2017-07-06T06:32:21.561Z,12888
2017-07-06T06:33:02.101Z,12252
2017-07-06T06:33:42.609Z,11268
2017-07-06T06:34:23.153Z,9912
2017-07-06T06:35:03.687Z,8916
2017-07-06T06:35:44.143Z,8684
2017-07-06T06:36:24.649Z,8608
2017-07-06T06:37:05.148Z,8540
2017-07-06T06:37:45.662Z,8488
2017-07-06T06:38:26.161Z,8436
2017-07-06T06:39:06.703Z,8376
2017-07-06T06:39:47.307Z,8324
2017-07-06T06:40:27.859Z,8276
2017-07-06T06:41:08.318Z,8224
2017-07-06T06:41:48.837Z,8168
2017-07-06T06:42:29.349Z,8112
2017-07-06T06:43:09.836Z,8060
2017-07-06T06:43:50.348Z,8028
2017-07-06T06:44:30.815Z,8000
2017-07-06T06:45:11.346Z,7960
2017-07-06T06:45:51.888Z,7908
2017-07-06T06:46:32.376Z,7852
2017-07-06T06:47:12.892Z,7812
2017-07-06T06:47:53.399Z,7776
2017-07-06T06:48:33.900Z,7732
2017-07-06T06:49:14.394Z,7696
2017-07-06T06:49:54.887Z,7656
2017-07-06T06:50:35.414Z,7616
2017-07-06T06:51:15.901Z,7588
2017-07-06T06:51:56.412Z,7560
2017-07-06T06:52:36.930Z,7528
2017-07-06T06:53:17.451Z,7492
2017-07-06T06:53:58.033Z,7452
2017-07-06T06:54:38.564Z,7424
2017-07-06T06:55:19.119Z,7392
2017-07-06T06:55:59.655Z,7364
2017-07-06T06:56:40.117Z,7348
2017-07-06T06:57:20.822Z,7312
2017-07-06T06:58:01.545Z,7284
2017-07-06T06:58:42.149Z,7256
2017-07-06T06:59:22.620Z,7236
2017-07-06T07:00:03.176Z,7208
2017-07-06T07:00:43.678Z,7176
2017-07-06T07:01:24.142Z,7152
2017-07-06T07:02:04.707Z,7128
2017-07-06T07:02:45.212Z,7108
2017-07-06T07:03:25.754Z,7088
2017-07-06T07:04:06.207Z,7072
2017-07-06T07:04:46.705Z,7056
2017-07-06T07:05:27.189Z,7028
2017-07-06T07:06:07.717Z,6996
2017-07-06T07:06:48.170Z,6972
2017-07-06T07:07:28.713Z,6956
2017-07-06T07:08:09.200Z,6944
2017-07-06T07:08:49.736Z,6928
2017-07-06T07:09:30.261Z,6920
2017-07-06T07:10:10.741Z,6916
2017-07-06T07:10:51.292Z,6892
2017-07-06T07:11:31.818Z,6884
2017-07-06T07:12:12.319Z,6872
2017-07-06T07:12:52.821Z,6852
2017-07-06T07:13:33.303Z,6848
2017-07-06T07:14:13.757Z,6836
2017-07-06T07:14:54.256Z,6832
2017-07-06T07:15:34.774Z,6824
2017-07-06T07:16:15.297Z,6804
2017-07-06T07:16:56.342Z,6792
2017-07-06T07:17:36.832Z,6784
2017-07-06T07:18:17.408Z,6776
2017-07-06T07:18:57.854Z,6768
2017-07-06T07:19:38.407Z,6764
2017-07-06T07:20:18.866Z,6756
2017-07-06T07:20:59.371Z,6748
2017-07-06T07:21:39.913Z,6744
2017-07-06T07:22:20.383Z,6732
2017-07-06T07:23:00.885Z,6720
2017-07-06T07:23:41.430Z,6708
2017-07-06T07:24:21.926Z,6700
2017-07-06T07:25:02.463Z,6692
2017-07-06T07:25:42.982Z,6676
2017-07-06T07:26:23.491Z,6660
2017-07-06T07:27:04.024Z,6640
2017-07-06T07:27:44.513Z,6624
2017-07-06T07:28:24.974Z,6608
2017-07-06T07:29:05.507Z,6592
2017-07-06T07:29:45.989Z,6584
2017-07-06T07:30:26.524Z,6572
2017-07-06T07:31:06.988Z,6556
2017-07-06T07:31:47.517Z,6536
2017-07-06T07:32:27.988Z,6528
2017-07-06T07:33:08.468Z,6500
2017-07-06T07:33:49.012Z,6488
2017-07-06T07:34:29.506Z,6464
2017-07-06T07:35:10.032Z,6456
2017-07-06T07:35:50.505Z,6448
2017-07-06T07:36:31.095Z,6436
2017-07-06T07:37:11.576Z,6416
2017-07-06T07:37:52.087Z,6408
2017-07-06T07:38:32.576Z,6396
2017-07-06T07:39:13.150Z,6372
2017-07-06T07:39:53.700Z,6360
2017-07-06T07:40:34.182Z,6340
2017-07-06T07:41:14.688Z,6320
2017-07-06T07:41:55.155Z,6308
2017-07-06T07:42:35.666Z,6292
2017-07-06T07:43:16.141Z,6268
2017-07-06T07:43:56.645Z,6248
2017-07-06T07:44:37.164Z,6224
2017-07-06T07:45:17.648Z,6208
2017-07-06T07:45:58.152Z,6188
2017-07-06T07:46:38.745Z,6172
2017-07-06T07:47:19.136Z,6160
2017-07-06T07:47:59.776Z,6144
2017-07-06T07:48:40.279Z,6116
2017-07-06T07:49:20.906Z,6096
2017-07-06T07:50:01.404Z,6076
2017-07-06T07:50:41.876Z,6048
2017-07-06T07:51:22.485Z,6020
2017-07-06T07:52:02.988Z,5996
2017-07-06T07:52:43.446Z,5976
2017-07-06T07:53:23.991Z,5964
2017-07-06T07:54:04.514Z,5936
2017-07-06T07:54:45.004Z,5916
2017-07-06T07:55:25.587Z,5896
2017-07-06T07:56:06.058Z,5872
2017-07-06T07:56:46.630Z,5852
2017-07-06T07:57:27.123Z,5828
2017-07-06T07:58:07.596Z,5800
2017-07-06T07:58:48.146Z,5776
2017-07-06T07:59:28.597Z,5752
2017-07-06T08:00:09.144Z,5728
2017-07-06T08:00:49.619Z,5700
2017-07-06T08:01:30.130Z,5672
2017-07-06T08:02:10.685Z,5640
2017-07-06T08:02:51.147Z,5616
2017-07-06T08:03:31.715Z,5588
2017-07-06T08:04:12.243Z,5560
2017-07-06T08:04:52.701Z,5532
2017-07-06T08:05:33.232Z,5508
2017-07-06T08:06:13.742Z,5484
2017-07-06T08:06:54.233Z,5456
2017-07-06T08:07:34.763Z,5424
2017-07-06T08:08:15.238Z,5392
2017-07-06T08:08:55.763Z,5368
2017-07-06T08:09:36.233Z,5340
2017-07-06T08:10:16.767Z,5312
2017-07-06T08:10:57.250Z,5284
2017-07-06T08:11:37.759Z,5260
2017-07-06T08:12:18.291Z,5236
2017-07-06T08:12:58.789Z,5208
2017-07-06T08:13:39.315Z,5180
2017-07-06T08:14:19.837Z,5148
2017-07-06T08:15:00.349Z,5120
2017-07-06T08:15:40.907Z,5092
2017-07-06T08:16:21.337Z,5068
2017-07-06T08:17:01.832Z,5036
2017-07-06T08:17:42.333Z,5012
2017-07-06T08:18:22.805Z,4988
2017-07-06T08:19:03.359Z,4960
2017-07-06T08:19:43.859Z,4936
2017-07-06T08:20:24.339Z,4908
2017-07-06T08:21:04.872Z,4880
2017-07-06T08:21:45.371Z,4852
2017-07-06T08:22:25.973Z,4832
2017-07-06T08:23:06.516Z,4800
2017-07-06T08:23:47.045Z,4776
2017-07-06T08:24:27.574Z,4744
2017-07-06T08:25:08.059Z,4720
2017-07-06T08:25:48.586Z,4692
2017-07-06T08:26:29.067Z,4660
2017-07-06T08:27:09.617Z,4640
2017-07-06T08:27:50.108Z,4616
2017-07-06T08:28:30.630Z,4592
2017-07-06T08:29:11.145Z,4548
2017-07-06T08:29:51.835Z,4484
2017-07-06T08:30:32.362Z,4384
2017-07-06T08:31:12.868Z,4264
2017-07-06T08:31:53.351Z,4132
2017-07-06T08:32:33.890Z,4012
2017-07-06T08:33:14.400Z,3904
2017-07-06T08:33:54.919Z,3824
2017-07-06T08:34:35.338Z,3772
2017-07-06T08:35:15.876Z,3732
2017-07-06T08:35:56.353Z,3712
2017-07-06T08:36:36.869Z,3692
2017-07-06T08:37:17.433Z,3680
2017-07-06T08:37:57.886Z,3672
2017-07-06T08:38:38.419Z,3664
2017-07-06T08:39:18.918Z,3652
2017-07-06T08:39:59.423Z,3644
2017-07-06T08:40:39.883Z,3636
2017-07-06T08:41:20.387Z,3632
2017-07-06T08:42:00.863Z,3624
2017-07-06T08:42:41.461Z,3612
2017-07-06T08:43:21.947Z,3600
2017-07-06T08:44:02.415Z,3584
2017-07-06T08:44:42.992Z,3572
2017-07-06T08:45:23.493Z,3556
2017-07-06T08:46:03.960Z,3548
2017-07-06T08:46:44.489Z,3536
2017-07-06T08:47:25.003Z,3524
2017-07-06T08:48:05.540Z,3512
2017-07-06T08:48:46.043Z,3504
2017-07-06T08:49:26.591Z,3488
2017-07-06T08:50:07.121Z,3476
2017-07-06T08:50:47.611Z,3468
2017-07-06T08:51:28.207Z,3452
2017-07-06T08:52:08.700Z,3440
2017-07-06T08:52:49.200Z,3428
2017-07-06T08:53:29.724Z,3416
2017-07-06T08:54:10.247Z,3400
2017-07-06T08:54:50.763Z,3396
2017-07-06T08:55:31.231Z,3376
2017-07-06T08:56:11.766Z,3364
2017-07-06T08:56:52.255Z,3344
2017-07-06T08:57:32.764Z,3332
2017-07-06T08:58:13.275Z,3320
2017-07-06T08:58:53.768Z,3312
2017-07-06T08:59:34.328Z,3300
2017-07-06T09:00:14.814Z,3288
2017-07-06T09:00:55.339Z,3276
2017-07-06T09:01:35.838Z,3260
2017-07-06T09:02:16.349Z,3244
2017-07-06T09:02:56.839Z,3232
2017-07-06T09:03:37.364Z,3220
2017-07-06T09:04:17.836Z,3216
2017-07-06T09:04:58.317Z,3208
2017-07-06T09:05:38.845Z,3200
2017-07-06T09:06:19.329Z,3196
2017-07-06T09:06:59.884Z,3188
2017-07-06T09:07:40.384Z,3188
2017-07-06T09:08:20.911Z,3180
2017-07-06T09:09:01.457Z,3176
2017-07-06T09:09:41.959Z,3172
2017-07-06T09:10:22.425Z,3172
2017-07-06T09:11:02.942Z,3164
2017-07-06T09:11:43.478Z,3160
2017-07-06T09:12:23.995Z,3156
2017-07-06T09:13:04.527Z,3148
2017-07-06T09:13:45.030Z,3144
2017-07-06T09:14:25.534Z,3140
2017-07-06T09:15:06.026Z,3136
2017-07-06T09:15:46.532Z,3132
2017-07-06T09:16:27.083Z,3120
2017-07-06T09:17:07.540Z,3116
2017-07-06T09:17:48.041Z,3116
2017-07-06T09:18:28.563Z,3108
2017-07-06T09:19:09.072Z,3104
2017-07-06T09:19:49.594Z,3100
2017-07-06T09:20:30.097Z,3092